메인 페이지
METAR-TAF:

METAR-TAF

공항 :

울란바토르, 몽골

칭기즈 칸 국제공항

위도: 47-55N, 경도: 106-52E, 고도: 1306m

현재 날씨관측

예보는 19분 전, 00:30시(UTC)에 발표되었습니다.
무풍
온도 -23°C
습도 63%
기압 1022 hPa
시정 10km 이상
고도 10000ft 상공 구름 보통

METAR: ZMUB 180030Z 00000MPS 9999 SCT100 M23/M28 Q1022 NOSIG RMK QFE658.8 62 MOP

시각: 08:49 (00:49 UTC)

예보

예보는 2 시간 9분 전, 22:40시(UTC)에 발표되었습니다.
예보 대상 시간: 18일 00시부터 19일 06시까지 (UTC)
여러 방향의 바람 4kt
시정 10km 이상
고도 10000ft 상공 구름 보통
일시적
18일 00시부터 18일 09시까지 (UTC)
시정: 6000m
고도 8000ft 상공 구름 많음
약한눈

TAF: ZMUB 172240Z 1800/1906 VRB02MPS 9999 SCT100 TXM12/1807Z TNM25/1823Z TEMPO 1800/1809 6000 -SN BKN080

4,000개 이상의 공항 관측 자료 및 예보 (METAR 및 TAF 보고).

지도상에서 검색 가능한 기상관측소가 노란 점과 빨간 점으로 표시되어 있습니다.

기상관측소 명을 보려면 표시 위로 마우스를 이동하세요.

날씨 관측과 예보를 보려면 클릭하세요.

지도 변경 : 확대하려면 엑스 표시가 있는 녹색 버튼, 축소하려면 빼기 표시가 있는 녹색 버튼, 다음 페이지의 지도를 보려면 녹색 화살표를 클릭하세요.


METAR-TAF: